Pagina principale
METAR-TAF:

METAR-TAF

Aeroporti :

Aeroporto di Taranto-Grottaglie

Taranto, Italia

latitudine: 40-31N, longitudine: 017-24E, altezza: 64 m

Osservazione

Il bollettino è stato emesso 1 ora e 18 minuti fa, alle 08:50 UTC
Vento 5 kt da sud/sud-ovest
Temperature 15°C
Umidità 67%
Pressione 1013 hPa
Visibilità 10 km o più
Nubi sparse ad un'altezza di 2500 ft

METAR: LIBG 090850Z 20005KT 9999 SCT025 15/09 Q1013

Ora: 11:08 (10:08 UTC)

Previsione

Il bollettino è stato emesso 2 ore e 8 minuti fa, alle 08:00 UTC
Previsione valida dal 09 alle 09 UTC al 09 alle 18 UTC
Vento 5 kt da direzioni variabili
Visibilità 10 km o più
nessuna nube inferiore a 1500 m e nessun cumulonembo
Evoluzione graduale
dal 09 alle 09 UTC al 09 alle 11 UTC
Vento 12 kt da sud

TAF: LIBG 090800Z 0909/0918 VRB05KT CAVOK BECMG 0909/0911 18012KT

Osservazioni e previsioni meteorologiche di più di 4000 aeroporti (messaggi METAR e TAF).

Le stazioni disponibili sono rappresentate dai dischi gialli e rossi sulla carta.

Puntare il mouse per vedere il nome della stazione.

Clicca sopra per visualizzare le osservazioni e previsioni meteorologiche.

Per cambiare la mappa : fare clic sui pulsanti verdi con una croce nera per ingrandire, il pulsante verde con un trattino per diminuire, o sulla freccia verde per le mappe adiacenti.


METAR-TAF: